Terminal Aerodrome Forecast
Issued by NWS

Home | Current Version | Previous Version | Text Only | Print | Product List | Glossary On
Versions: 1 2 3 4 5 6 7 8 9 10 11 12 13 14 15 16 17 18 19 20 21 22 23 24 25
000
FTUS44 KCRP 020500
TAFALI
TAF
KALI 020531Z 0206/0306 35006KT 3SM -DZ BR OVC005
      TEMPO 0206/0208 1SM -DZ BR OVC003
     FM020800 35008KT 1/2SM -DZ FG OVC003
     FM021800 01007KT 3SM BR OVC004
     FM030100 04005KT 2SM BR OVC004=

USA.gov is the U.S. government's official web portal to all federal, state and local government web resources and services.